sensor_id;sensor_type;location;lat;lon;timestamp;pressure;altitude;pressure_sealevel;temperature;humidity
65280;BME280;51878;55.748;48.742;2024-02-21T00:00:27;100454.13;;;-10.22;100.00
65280;BME280;51878;55.748;48.742;2024-02-21T00:05:30;100490.44;;;-10.04;100.00
65280;BME280;51878;55.748;48.742;2024-02-21T00:10:32;100480.88;;;-10.05;100.00
65280;BME280;51878;55.748;48.742;2024-02-21T00:15:34;100394.50;;;-10.53;100.00
65280;BME280;51878;55.748;48.742;2024-02-21T00:20:37;100422.06;;;-10.33;100.00
65280;BME280;51878;55.748;48.742;2024-02-21T00:25:39;100405.69;;;-10.45;100.00
65280;BME280;51878;55.748;48.742;2024-02-21T00:30:41;100495.63;;;-10.01;100.00
65280;BME280;51878;55.748;48.742;2024-02-21T00:35:43;100492.94;;;-9.98;100.00
65280;BME280;51878;55.748;48.742;2024-02-21T00:40:46;100446.97;;;-10.14;100.00
65280;BME280;51878;55.748;48.742;2024-02-21T00:45:48;100351.09;;;-10.65;100.00
65280;BME280;51878;55.748;48.742;2024-02-21T00:50:50;100426.13;;;-10.20;100.00
65280;BME280;51878;55.748;48.742;2024-02-21T00:55:52;100436.53;;;-10.17;100.00
65280;BME280;51878;55.748;48.742;2024-02-21T01:00:55;100477.09;;;-9.91;100.00
65280;BME280;51878;55.748;48.742;2024-02-21T01:05:57;100438.28;;;-10.18;100.00
65280;BME280;51878;55.748;48.742;2024-02-21T01:10:59;100368.31;;;-10.54;100.00
65280;BME280;51878;55.748;48.742;2024-02-21T01:16:01;100465.06;;;-10.03;100.00
65280;BME280;51878;55.748;48.742;2024-02-21T01:21:04;100465.81;;;-9.97;100.00
65280;BME280;51878;55.748;48.742;2024-02-21T01:26:08;100407.31;;;-10.39;100.00
65280;BME280;51878;55.748;48.742;2024-02-21T01:31:14;100460.81;;;-10.07;100.00
65280;BME280;51878;55.748;48.742;2024-02-21T01:36:17;100422.75;;;-10.27;100.00
65280;BME280;51878;55.748;48.742;2024-02-21T01:41:20;100452.03;;;-10.06;100.00
65280;BME280;51878;55.748;48.742;2024-02-21T01:46:23;100455.63;;;-10.10;100.00
65280;BME280;51878;55.748;48.742;2024-02-21T01:51:30;100409.25;;;-10.49;100.00
65280;BME280;51878;55.748;48.742;2024-02-21T01:56:33;100450.81;;;-10.30;100.00
65280;BME280;51878;55.748;48.742;2024-02-21T02:01:36;100456.75;;;-10.24;100.00
65280;BME280;51878;55.748;48.742;2024-02-21T02:06:39;100450.66;;;-10.24;100.00
65280;BME280;51878;55.748;48.742;2024-02-21T02:11:43;100453.44;;;-10.30;100.00
65280;BME280;51878;55.748;48.742;2024-02-21T02:16:48;100418.06;;;-10.51;100.00
65280;BME280;51878;55.748;48.742;2024-02-21T02:21:56;100414.38;;;-10.43;100.00
65280;BME280;51878;55.748;48.742;2024-02-21T02:27:02;100449.75;;;-10.23;100.00
65280;BME280;51878;55.748;48.742;2024-02-21T02:32:04;100416.34;;;-10.54;100.00
65280;BME280;51878;55.748;48.742;2024-02-21T02:37:07;100410.25;;;-10.56;100.00
65280;BME280;51878;55.748;48.742;2024-02-21T02:42:09;100435.41;;;-10.47;100.00
65280;BME280;51878;55.748;48.742;2024-02-21T02:47:11;100303.47;;;-11.30;100.00
65280;BME280;51878;55.748;48.742;2024-02-21T02:52:13;100394.19;;;-10.83;100.00
65280;BME280;51878;55.748;48.742;2024-02-21T02:57:16;100402.59;;;-10.65;100.00
65280;BME280;51878;55.748;48.742;2024-02-21T03:02:19;100433.69;;;-10.48;100.00
65280;BME280;51878;55.748;48.742;2024-02-21T03:07:21;100444.00;;;-10.39;100.00
65280;BME280;51878;55.748;48.742;2024-02-21T03:12:23;100405.38;;;-10.73;100.00
65280;BME280;51878;55.748;48.742;2024-02-21T03:17:30;100448.47;;;-10.43;100.00
65280;BME280;51878;55.748;48.742;2024-02-21T03:22:32;100393.97;;;-10.70;100.00
65280;BME280;51878;55.748;48.742;2024-02-21T03:27:35;100438.75;;;-10.39;100.00
65280;BME280;51878;55.748;48.742;2024-02-21T03:32:37;100434.31;;;-10.35;100.00
65280;BME280;51878;55.748;48.742;2024-02-21T03:37:41;100373.88;;;-10.70;100.00
65280;BME280;51878;55.748;48.742;2024-02-21T03:42:43;100379.22;;;-10.76;100.00
65280;BME280;51878;55.748;48.742;2024-02-21T03:47:46;100404.22;;;-10.59;100.00
65280;BME280;51878;55.748;48.742;2024-02-21T03:52:48;100354.69;;;-10.70;100.00
65280;BME280;51878;55.748;48.742;2024-02-21T03:57:50;100448.88;;;-10.22;100.00
65280;BME280;51878;55.748;48.742;2024-02-21T04:02:53;100440.06;;;-10.18;100.00
65280;BME280;51878;55.748;48.742;2024-02-21T04:07:55;100453.91;;;-10.11;100.00
65280;BME280;51878;55.748;48.742;2024-02-21T04:12:58;100435.81;;;-10.25;100.00
65280;BME280;51878;55.748;48.742;2024-02-21T04:18:00;100451.09;;;-10.04;100.00
65280;BME280;51878;55.748;48.742;2024-02-21T04:23:03;100422.41;;;-10.10;100.00
65280;BME280;51878;55.748;48.742;2024-02-21T04:28:05;100455.16;;;-9.87;100.00
65280;BME280;51878;55.748;48.742;2024-02-21T04:33:08;100421.44;;;-10.06;100.00
65280;BME280;51878;55.748;48.742;2024-02-21T04:38:10;100431.47;;;-9.84;100.00
65280;BME280;51878;55.748;48.742;2024-02-21T04:43:12;100405.34;;;-9.89;100.00
65280;BME280;51878;55.748;48.742;2024-02-21T04:48:14;100419.81;;;-9.72;100.00
65280;BME280;51878;55.748;48.742;2024-02-21T04:53:17;100452.50;;;-9.48;100.00
65280;BME280;51878;55.748;48.742;2024-02-21T04:58:19;100462.13;;;-9.47;100.00
65280;BME280;51878;55.748;48.742;2024-02-21T05:03:21;100417.88;;;-9.63;100.00
65280;BME280;51878;55.748;48.742;2024-02-21T05:08:24;100413.47;;;-9.62;100.00
65280;BME280;51878;55.748;48.742;2024-02-21T05:13:26;100446.03;;;-9.33;100.00
65280;BME280;51878;55.748;48.742;2024-02-21T05:18:28;100408.34;;;-9.31;100.00
65280;BME280;51878;55.748;48.742;2024-02-21T05:23:30;100462.38;;;-8.86;100.00
65280;BME280;51878;55.748;48.742;2024-02-21T05:28:33;100456.94;;;-8.79;100.00
65280;BME280;51878;55.748;48.742;2024-02-21T05:33:35;100475.06;;;-8.68;100.00
65280;BME280;51878;55.748;48.742;2024-02-21T05:38:37;100469.56;;;-8.59;100.00
65280;BME280;51878;55.748;48.742;2024-02-21T05:43:40;100430.13;;;-8.59;100.00
65280;BME280;51878;55.748;48.742;2024-02-21T05:48:42;100420.97;;;-8.75;100.00
65280;BME280;51878;55.748;48.742;2024-02-21T05:53:45;100463.06;;;-8.45;100.00
65280;BME280;51878;55.748;48.742;2024-02-21T05:58:47;100469.50;;;-8.24;100.00
65280;BME280;51878;55.748;48.742;2024-02-21T06:03:50;100476.00;;;-8.06;100.00
65280;BME280;51878;55.748;48.742;2024-02-21T06:08:52;100431.63;;;-8.19;100.00
65280;BME280;51878;55.748;48.742;2024-02-21T06:13:54;100465.59;;;-7.81;100.00
65280;BME280;51878;55.748;48.742;2024-02-21T06:18:59;100478.63;;;-7.47;100.00
65280;BME280;51878;55.748;48.742;2024-02-21T06:24:02;100475.41;;;-7.29;100.00
65280;BME280;51878;55.748;48.742;2024-02-21T06:29:04;100480.84;;;-7.07;100.00
65280;BME280;51878;55.748;48.742;2024-02-21T06:34:07;100442.47;;;-7.14;99.80
65280;BME280;51878;55.748;48.742;2024-02-21T06:39:09;100454.00;;;-6.91;99.04
65280;BME280;51878;55.748;48.742;2024-02-21T06:44:13;100497.50;;;-6.53;99.55
65280;BME280;51878;55.748;48.742;2024-02-21T06:49:15;100448.53;;;-6.60;96.31
65280;BME280;51878;55.748;48.742;2024-02-21T06:54:18;100430.13;;;-6.36;96.41
65280;BME280;51878;55.748;48.742;2024-02-21T06:59:20;100485.63;;;-5.91;93.08
65280;BME280;51878;55.748;48.742;2024-02-21T07:04:22;100452.44;;;-5.74;88.20
65280;BME280;51878;55.748;48.742;2024-02-21T07:09:25;100438.78;;;-5.86;82.46
65280;BME280;51878;55.748;48.742;2024-02-21T07:14:32;100487.22;;;-5.17;81.34
65280;BME280;51878;55.748;48.742;2024-02-21T07:19:34;100480.00;;;-5.14;78.23
65280;BME280;51878;55.748;48.742;2024-02-21T07:24:37;100467.59;;;-5.34;74.93
65280;BME280;51878;55.748;48.742;2024-02-21T07:29:40;100511.69;;;-5.12;73.76
65280;BME280;51878;55.748;48.742;2024-02-21T07:34:42;100506.91;;;-5.25;72.62
65280;BME280;51878;55.748;48.742;2024-02-21T07:39:45;100459.47;;;-5.29;74.29
65280;BME280;51878;55.748;48.742;2024-02-21T07:44:47;100472.88;;;-4.90;74.23
65280;BME280;51878;55.748;48.742;2024-02-21T07:49:49;100499.72;;;-4.79;71.82
65280;BME280;51878;55.748;48.742;2024-02-21T07:54:51;100503.88;;;-4.71;71.56
65280;BME280;51878;55.748;48.742;2024-02-21T07:59:54;100456.91;;;-4.66;71.52
65280;BME280;51878;55.748;48.742;2024-02-21T08:04:56;100467.09;;;-3.77;66.64
65280;BME280;51878;55.748;48.742;2024-02-21T08:09:58;100505.97;;;-3.20;62.26
65280;BME280;51878;55.748;48.742;2024-02-21T08:15:01;100497.25;;;-2.86;61.18
65280;BME280;51878;55.748;48.742;2024-02-21T08:20:06;100497.53;;;-2.38;58.79
65280;BME280;51878;55.748;48.742;2024-02-21T08:25:09;100509.44;;;-1.61;56.62
65280;BME280;51878;55.748;48.742;2024-02-21T08:30:11;100506.81;;;-1.79;55.85
65280;BME280;51878;55.748;48.742;2024-02-21T08:35:14;100497.13;;;-1.31;54.44
65280;BME280;51878;55.748;48.742;2024-02-21T08:40:16;100518.41;;;-1.15;53.20
65280;BME280;51878;55.748;48.742;2024-02-21T08:45:23;100460.84;;;-1.16;52.12
65280;BME280;51878;55.748;48.742;2024-02-21T08:50:25;100495.31;;;-0.82;51.75
65280;BME280;51878;55.748;48.742;2024-02-21T08:55:28;100460.88;;;-0.25;51.19
65280;BME280;51878;55.748;48.742;2024-02-21T09:00:31;100505.00;;;-0.35;49.56
65280;BME280;51878;55.748;48.742;2024-02-21T09:05:33;100500.50;;;-0.19;49.20
65280;BME280;51878;55.748;48.742;2024-02-21T09:10:37;100515.50;;;-0.32;49.17
65280;BME280;51878;55.748;48.742;2024-02-21T09:15:39;100518.66;;;-0.72;50.16
65280;BME280;51878;55.748;48.742;2024-02-21T09:20:41;100370.88;;;-1.87;51.03
65280;BME280;51878;55.748;48.742;2024-02-21T09:25:43;100468.06;;;-1.34;51.69
65280;BME280;51878;55.748;48.742;2024-02-21T09:30:46;100419.47;;;-1.06;50.39
65280;BME280;51878;55.748;48.742;2024-02-21T09:35:48;100490.31;;;-0.57;49.99
65280;BME280;51878;55.748;48.742;2024-02-21T09:41:00;100465.88;;;-0.49;49.02
65280;BME280;51878;55.748;48.742;2024-02-21T09:46:03;100368.78;;;-0.44;48.71
65280;BME280;51878;55.748;48.742;2024-02-21T09:51:07;100416.16;;;0.23;46.48
65280;BME280;51878;55.748;48.742;2024-02-21T09:56:11;100438.91;;;0.85;45.87
65280;BME280;51878;55.748;48.742;2024-02-21T10:01:16;100470.56;;;1.58;44.58
65280;BME280;51878;55.748;48.742;2024-02-21T10:06:25;100471.16;;;1.89;43.06
65280;BME280;51878;55.748;48.742;2024-02-21T10:11:28;100392.00;;;1.60;42.67
65280;BME280;51878;55.748;48.742;2024-02-21T10:16:30;100387.22;;;1.65;41.91
65280;BME280;51878;55.748;48.742;2024-02-21T10:21:33;100433.13;;;2.47;41.00
65280;BME280;51878;55.748;48.742;2024-02-21T10:26:35;100455.63;;;3.54;39.27
65280;BME280;51878;55.748;48.742;2024-02-21T10:31:39;100442.88;;;2.85;39.17
65280;BME280;51878;55.748;48.742;2024-02-21T10:36:42;100342.84;;;2.62;38.45
65280;BME280;51878;55.748;48.742;2024-02-21T10:41:44;100413.81;;;3.16;38.50
65280;BME280;51878;55.748;48.742;2024-02-21T10:46:47;100434.84;;;3.80;38.71
65280;BME280;51878;55.748;48.742;2024-02-21T10:57:14;100466.00;;;3.35;38.83
65280;BME280;51878;55.748;48.742;2024-02-21T11:02:17;100464.94;;;3.72;37.99
65280;BME280;51878;55.748;48.742;2024-02-21T11:07:20;100331.53;;;2.94;38.10
65280;BME280;51878;55.748;48.742;2024-02-21T11:12:23;100444.53;;;4.05;37.57
65280;BME280;51878;55.748;48.742;2024-02-21T11:17:26;100440.28;;;4.48;36.39
65280;BME280;51878;55.748;48.742;2024-02-21T11:22:29;100415.88;;;4.06;36.53
65280;BME280;51878;55.748;48.742;2024-02-21T11:27:33;100348.03;;;3.81;36.23
65280;BME280;51878;55.748;48.742;2024-02-21T11:32:36;100297.03;;;3.14;36.95
65280;BME280;51878;55.748;48.742;2024-02-21T11:37:39;100433.28;;;3.89;37.28
65280;BME280;51878;55.748;48.742;2024-02-21T11:42:42;100370.31;;;3.13;37.28
65280;BME280;51878;55.748;48.742;2024-02-21T11:47:44;100420.97;;;4.54;35.81
65280;BME280;51878;55.748;48.742;2024-02-21T11:52:48;100423.09;;;3.59;37.16
65280;BME280;51878;55.748;48.742;2024-02-21T11:57:50;100426.81;;;2.48;38.16
65280;BME280;51878;55.748;48.742;2024-02-21T12:02:53;100427.84;;;1.96;39.61
65280;BME280;51878;55.748;48.742;2024-02-21T12:07:57;100440.13;;;0.93;41.88
65280;BME280;51878;55.748;48.742;2024-02-21T12:13:07;100374.19;;;-0.59;44.77
65280;BME280;51878;55.748;48.742;2024-02-21T12:18:10;100421.03;;;-1.33;46.96
65280;BME280;51878;55.748;48.742;2024-02-21T12:23:12;100363.66;;;-2.67;50.22
65280;BME280;51878;55.748;48.742;2024-02-21T12:28:15;100445.06;;;-2.33;51.05
65280;BME280;51878;55.748;48.742;2024-02-21T12:33:24;100423.66;;;-2.82;52.17
65280;BME280;51878;55.748;48.742;2024-02-21T12:38:26;100405.88;;;-3.89;55.51
65280;BME280;51878;55.748;48.742;2024-02-21T12:43:29;100386.88;;;-4.18;55.76
65280;BME280;51878;55.748;48.742;2024-02-21T12:48:31;100395.06;;;-4.64;58.34
65280;BME280;51878;55.748;48.742;2024-02-21T12:53:34;100371.34;;;-5.06;60.10
65280;BME280;51878;55.748;48.742;2024-02-21T12:58:36;100441.97;;;-5.10;62.85
65280;BME280;51878;55.748;48.742;2024-02-21T13:03:39;100383.13;;;-6.01;69.16
65280;BME280;51878;55.748;48.742;2024-02-21T13:08:41;100440.31;;;-5.80;71.92
65280;BME280;51878;55.748;48.742;2024-02-21T13:13:43;100439.13;;;-6.17;76.06
65280;BME280;51878;55.748;48.742;2024-02-21T13:18:46;100434.06;;;-6.48;77.53
65280;BME280;51878;55.748;48.742;2024-02-21T13:23:49;100408.22;;;-7.14;83.35
65280;BME280;51878;55.748;48.742;2024-02-21T13:28:51;100407.91;;;-7.31;87.09
65280;BME280;51878;55.748;48.742;2024-02-21T13:33:53;100437.31;;;-7.45;91.46
65280;BME280;51878;55.748;48.742;2024-02-21T13:38:56;100440.75;;;-7.71;96.47
65280;BME280;51878;55.748;48.742;2024-02-21T13:43:58;100402.88;;;-7.95;96.60
65280;BME280;51878;55.748;48.742;2024-02-21T13:49:04;100453.88;;;-7.99;100.00
65280;BME280;51878;55.748;48.742;2024-02-21T13:54:07;100431.72;;;-8.22;100.00
65280;BME280;51878;55.748;48.742;2024-02-21T13:59:15;100403.22;;;-8.37;100.00
65280;BME280;51878;55.748;48.742;2024-02-21T14:04:18;100434.16;;;-8.45;100.00
65280;BME280;51878;55.748;48.742;2024-02-21T14:09:20;100408.59;;;-8.71;100.00
65280;BME280;51878;55.748;48.742;2024-02-21T14:14:23;100469.44;;;-8.54;100.00
65280;BME280;51878;55.748;48.742;2024-02-21T14:19:25;100435.19;;;-8.84;100.00
65280;BME280;51878;55.748;48.742;2024-02-21T14:24:27;100458.38;;;-8.67;100.00
65280;BME280;51878;55.748;48.742;2024-02-21T14:29:30;100461.88;;;-8.66;100.00
65280;BME280;51878;55.748;48.742;2024-02-21T14:34:32;100452.41;;;-8.72;100.00
65280;BME280;51878;55.748;48.742;2024-02-21T14:39:35;100443.53;;;-8.68;100.00
65280;BME280;51878;55.748;48.742;2024-02-21T14:44:37;100468.19;;;-8.74;100.00
65280;BME280;51878;55.748;48.742;2024-02-21T14:49:40;100462.13;;;-8.76;100.00
65280;BME280;51878;55.748;48.742;2024-02-21T14:54:42;100414.06;;;-9.13;100.00
65280;BME280;51878;55.748;48.742;2024-02-21T14:59:48;100464.09;;;-8.84;100.00
65280;BME280;51878;55.748;48.742;2024-02-21T15:04:58;100461.63;;;-8.90;100.00
65280;BME280;51878;55.748;48.742;2024-02-21T15:10:01;100446.25;;;-9.05;100.00
65280;BME280;51878;55.748;48.742;2024-02-21T15:15:05;100438.84;;;-9.25;100.00
65280;BME280;51878;55.748;48.742;2024-02-21T15:20:08;100425.88;;;-9.31;100.00
65280;BME280;51878;55.748;48.742;2024-02-21T15:25:11;100411.44;;;-9.49;100.00
65280;BME280;51878;55.748;48.742;2024-02-21T15:30:18;100452.22;;;-9.34;100.00
65280;BME280;51878;55.748;48.742;2024-02-21T15:35:21;100461.56;;;-9.24;100.00
65280;BME280;51878;55.748;48.742;2024-02-21T15:40:23;100454.00;;;-9.37;100.00
65280;BME280;51878;55.748;48.742;2024-02-21T15:45:26;100476.69;;;-9.34;100.00
65280;BME280;51878;55.748;48.742;2024-02-21T15:50:28;100452.25;;;-9.36;100.00
65280;BME280;51878;55.748;48.742;2024-02-21T15:55:31;100462.72;;;-9.34;100.00
65280;BME280;51878;55.748;48.742;2024-02-21T16:00:33;100423.84;;;-9.56;100.00
65280;BME280;51878;55.748;48.742;2024-02-21T16:05:35;100422.91;;;-9.53;100.00
65280;BME280;51878;55.748;48.742;2024-02-21T16:10:38;100455.84;;;-9.40;100.00
65280;BME280;51878;55.748;48.742;2024-02-21T16:15:43;100454.16;;;-9.43;100.00
65280;BME280;51878;55.748;48.742;2024-02-21T16:20:49;100454.03;;;-9.38;100.00
65280;BME280;51878;55.748;48.742;2024-02-21T16:25:51;100461.78;;;-9.33;100.00
65280;BME280;51878;55.748;48.742;2024-02-21T16:30:54;100454.16;;;-9.44;100.00
65280;BME280;51878;55.748;48.742;2024-02-21T16:36:00;100460.97;;;-9.36;100.00
65280;BME280;51878;55.748;48.742;2024-02-21T16:41:04;100428.25;;;-9.58;100.00
65280;BME280;51878;55.748;48.742;2024-02-21T16:46:06;100408.50;;;-9.74;100.00
65280;BME280;51878;55.748;48.742;2024-02-21T16:51:09;100420.00;;;-9.80;100.00
65280;BME280;51878;55.748;48.742;2024-02-21T16:56:12;100465.94;;;-9.62;100.00
65280;BME280;51878;55.748;48.742;2024-02-21T17:01:14;100460.91;;;-9.70;100.00
65280;BME280;51878;55.748;48.742;2024-02-21T17:06:18;100396.13;;;-10.07;100.00
65280;BME280;51878;55.748;48.742;2024-02-21T17:11:20;100450.53;;;-9.76;100.00
65280;BME280;51878;55.748;48.742;2024-02-21T17:16:23;100454.25;;;-9.86;100.00
65280;BME280;51878;55.748;48.742;2024-02-21T17:21:25;100335.38;;;-10.65;100.00
65280;BME280;51878;55.748;48.742;2024-02-21T17:26:30;100396.63;;;-10.30;100.00
65280;BME280;51878;55.748;48.742;2024-02-21T17:31:32;100373.34;;;-10.44;100.00
65280;BME280;51878;55.748;48.742;2024-02-21T17:36:35;100411.25;;;-10.20;100.00
65280;BME280;51878;55.748;48.742;2024-02-21T17:41:38;100458.03;;;-10.01;100.00
65280;BME280;51878;55.748;48.742;2024-02-21T17:46:41;100459.00;;;-10.05;100.00
65280;BME280;51878;55.748;48.742;2024-02-21T17:51:49;100448.03;;;-10.24;100.00
65280;BME280;51878;55.748;48.742;2024-02-21T17:56:55;100461.28;;;-10.29;100.00
65280;BME280;51878;55.748;48.742;2024-02-21T18:02:01;100463.19;;;-10.37;100.00
65280;BME280;51878;55.748;48.742;2024-02-21T18:07:03;100455.47;;;-10.45;100.00
65280;BME280;51878;55.748;48.742;2024-02-21T18:12:07;100427.19;;;-10.72;100.00
65280;BME280;51878;55.748;48.742;2024-02-21T18:17:17;100476.66;;;-10.57;100.00
65280;BME280;51878;55.748;48.742;2024-02-21T18:22:25;100455.88;;;-10.66;100.00
65280;BME280;51878;55.748;48.742;2024-02-21T18:27:28;100438.69;;;-10.81;100.00
65280;BME280;51878;55.748;48.742;2024-02-21T18:32:39;100445.59;;;-10.78;100.00
65280;BME280;51878;55.748;48.742;2024-02-21T18:37:43;100453.47;;;-10.78;100.00
65280;BME280;51878;55.748;48.742;2024-02-21T18:43:01;100419.09;;;-11.08;100.00
65280;BME280;51878;55.748;48.742;2024-02-21T18:48:07;100462.53;;;-10.98;100.00
65280;BME280;51878;55.748;48.742;2024-02-21T18:53:14;100418.00;;;-11.46;100.00
65280;BME280;51878;55.748;48.742;2024-02-21T18:58:31;100439.47;;;-11.27;100.00
65280;BME280;51878;55.748;48.742;2024-02-21T19:03:35;100438.94;;;-11.48;100.00
65280;BME280;51878;55.748;48.742;2024-02-21T19:08:41;100445.88;;;-11.47;100.00
65280;BME280;51878;55.748;48.742;2024-02-21T19:13:43;100465.78;;;-11.38;100.00
65280;BME280;51878;55.748;48.742;2024-02-21T19:18:49;100471.25;;;-11.52;100.00
65280;BME280;51878;55.748;48.742;2024-02-21T19:23:52;100448.16;;;-11.82;100.00
65280;BME280;51878;55.748;48.742;2024-02-21T19:29:16;100454.47;;;-11.96;100.00
65280;BME280;51878;55.748;48.742;2024-02-21T19:34:19;100478.91;;;-12.01;100.00
65280;BME280;51878;55.748;48.742;2024-02-21T19:39:22;100400.25;;;-12.48;100.00
65280;BME280;51878;55.748;48.742;2024-02-21T19:44:28;100435.84;;;-12.38;100.00
65280;BME280;51878;55.748;48.742;2024-02-21T19:49:31;100466.16;;;-12.23;100.00
65280;BME280;51878;55.748;48.742;2024-02-21T19:54:34;100465.31;;;-12.27;100.00
65280;BME280;51878;55.748;48.742;2024-02-21T19:59:37;100442.88;;;-12.46;100.00
65280;BME280;51878;55.748;48.742;2024-02-21T20:04:40;100466.38;;;-12.44;100.00
65280;BME280;51878;55.748;48.742;2024-02-21T20:09:42;100477.63;;;-12.36;100.00
65280;BME280;51878;55.748;48.742;2024-02-21T20:14:45;100451.75;;;-12.59;100.00
65280;BME280;51878;55.748;48.742;2024-02-21T20:19:47;100427.56;;;-12.75;100.00
65280;BME280;51878;55.748;48.742;2024-02-21T20:24:49;100443.91;;;-12.58;100.00
65280;BME280;51878;55.748;48.742;2024-02-21T20:29:52;100456.94;;;-12.56;100.00
65280;BME280;51878;55.748;48.742;2024-02-21T20:35:19;100477.84;;;-12.59;100.00
65280;BME280;51878;55.748;48.742;2024-02-21T20:40:22;100461.44;;;-12.71;100.00
65280;BME280;51878;55.748;48.742;2024-02-21T20:45:25;100427.72;;;-12.89;100.00
65280;BME280;51878;55.748;48.742;2024-02-21T20:50:28;100460.59;;;-12.74;100.00
65280;BME280;51878;55.748;48.742;2024-02-21T20:55:30;100465.84;;;-12.76;100.00
65280;BME280;51878;55.748;48.742;2024-02-21T21:00:33;100422.56;;;-12.97;100.00
65280;BME280;51878;55.748;48.742;2024-02-21T21:05:36;100408.69;;;-13.03;100.00
65280;BME280;51878;55.748;48.742;2024-02-21T21:10:39;100454.47;;;-12.70;100.00
65280;BME280;51878;55.748;48.742;2024-02-21T21:15:41;100406.94;;;-13.01;100.00
65280;BME280;51878;55.748;48.742;2024-02-21T21:20:45;100455.38;;;-12.74;100.00
65280;BME280;51878;55.748;48.742;2024-02-21T21:25:47;100455.25;;;-12.63;100.00
65280;BME280;51878;55.748;48.742;2024-02-21T21:30:50;100443.28;;;-12.80;100.00
65280;BME280;51878;55.748;48.742;2024-02-21T21:35:52;100463.25;;;-12.77;100.00
65280;BME280;51878;55.748;48.742;2024-02-21T21:40:54;100474.59;;;-12.81;100.00
65280;BME280;51878;55.748;48.742;2024-02-21T21:45:59;100472.06;;;-12.89;100.00
65280;BME280;51878;55.748;48.742;2024-02-21T21:51:01;100462.53;;;-12.95;100.00
65280;BME280;51878;55.748;48.742;2024-02-21T21:56:04;100465.19;;;-12.98;100.00
65280;BME280;51878;55.748;48.742;2024-02-21T22:01:11;100463.53;;;-13.05;100.00
65280;BME280;51878;55.748;48.742;2024-02-21T22:06:15;100476.63;;;-13.13;100.00
65280;BME280;51878;55.748;48.742;2024-02-21T22:11:17;100471.34;;;-13.08;100.00
65280;BME280;51878;55.748;48.742;2024-02-21T22:16:20;100481.88;;;-13.19;100.00
65280;BME280;51878;55.748;48.742;2024-02-21T22:21:22;100425.63;;;-13.44;100.00
65280;BME280;51878;55.748;48.742;2024-02-21T22:26:24;100424.69;;;-13.40;100.00
65280;BME280;51878;55.748;48.742;2024-02-21T22:31:28;100417.81;;;-13.44;100.00
65280;BME280;51878;55.748;48.742;2024-02-21T22:36:30;100441.09;;;-13.24;100.00
65280;BME280;51878;55.748;48.742;2024-02-21T22:41:32;100422.16;;;-13.46;100.00
65280;BME280;51878;55.748;48.742;2024-02-21T22:46:35;100464.47;;;-13.17;100.00
65280;BME280;51878;55.748;48.742;2024-02-21T22:51:37;100452.31;;;-13.18;100.00
65280;BME280;51878;55.748;48.742;2024-02-21T22:56:39;100439.25;;;-13.16;100.00
65280;BME280;51878;55.748;48.742;2024-02-21T23:01:42;100406.56;;;-13.51;100.00
65280;BME280;51878;55.748;48.742;2024-02-21T23:06:44;100432.53;;;-13.39;100.00
65280;BME280;51878;55.748;48.742;2024-02-21T23:11:47;100439.44;;;-13.33;100.00
65280;BME280;51878;55.748;48.742;2024-02-21T23:16:50;100427.34;;;-13.45;100.00
65280;BME280;51878;55.748;48.742;2024-02-21T23:21:52;100378.06;;;-13.74;100.00
65280;BME280;51878;55.748;48.742;2024-02-21T23:26:54;100460.31;;;-13.33;100.00
65280;BME280;51878;55.748;48.742;2024-02-21T23:31:56;100401.44;;;-13.63;100.00
65280;BME280;51878;55.748;48.742;2024-02-21T23:36:59;100441.28;;;-13.46;100.00
65280;BME280;51878;55.748;48.742;2024-02-21T23:42:01;100347.06;;;-14.06;100.00
65280;BME280;51878;55.748;48.742;2024-02-21T23:47:03;100417.16;;;-13.73;100.00
65280;BME280;51878;55.748;48.742;2024-02-21T23:52:06;100399.00;;;-13.89;100.00
65280;BME280;51878;55.748;48.742;2024-02-21T23:57:08;100466.50;;;-13.46;100.00
